sensor_id;sensor_type;location;lat;lon;timestamp;P1;durP1;ratioP1;P2;durP2;ratioP2
4198;SDS011;2113;50.946;14.610;2023-05-29T00:02:17;3.78;;;2.17;;
4198;SDS011;2113;50.946;14.610;2023-05-29T00:04:47;7.22;;;3.30;;
4198;SDS011;2113;50.946;14.610;2023-05-29T00:07:17;7.60;;;3.60;;
4198;SDS011;2113;50.946;14.610;2023-05-29T00:09:45;5.72;;;3.28;;
4198;SDS011;2113;50.946;14.610;2023-05-29T00:12:14;7.90;;;3.15;;
4198;SDS011;2113;50.946;14.610;2023-05-29T00:14:43;7.55;;;4.10;;
4198;SDS011;2113;50.946;14.610;2023-05-29T00:17:11;5.80;;;2.80;;
4198;SDS011;2113;50.946;14.610;2023-05-29T00:19:39;5.93;;;3.38;;
4198;SDS011;2113;50.946;14.610;2023-05-29T00:22:09;4.30;;;2.90;;
4198;SDS011;2113;50.946;14.610;2023-05-29T00:24:37;5.55;;;2.97;;
4198;SDS011;2113;50.946;14.610;2023-05-29T00:27:05;6.28;;;3.25;;
4198;SDS011;2113;50.946;14.610;2023-05-29T00:29:35;6.00;;;2.65;;
4198;SDS011;2113;50.946;14.610;2023-05-29T00:32:05;4.75;;;2.92;;
4198;SDS011;2113;50.946;14.610;2023-05-29T00:34:34;6.40;;;2.65;;
4198;SDS011;2113;50.946;14.610;2023-05-29T00:39:57;5.18;;;3.00;;
4198;SDS011;2113;50.946;14.610;2023-05-29T00:42:26;4.97;;;2.60;;
4198;SDS011;2113;50.946;14.610;2023-05-29T00:44:54;4.80;;;2.45;;
4198;SDS011;2113;50.946;14.610;2023-05-29T00:47:23;8.65;;;3.05;;
4198;SDS011;2113;50.946;14.610;2023-05-29T00:49:51;3.80;;;2.10;;
4198;SDS011;2113;50.946;14.610;2023-05-29T00:52:21;8.77;;;2.97;;
4198;SDS011;2113;50.946;14.610;2023-05-29T00:54:53;6.60;;;3.30;;
4198;SDS011;2113;50.946;14.610;2023-05-29T00:57:22;9.63;;;2.75;;
4198;SDS011;2113;50.946;14.610;2023-05-29T00:59:52;6.78;;;2.97;;
4198;SDS011;2113;50.946;14.610;2023-05-29T01:02:20;6.72;;;3.20;;
4198;SDS011;2113;50.946;14.610;2023-05-29T01:04:49;5.28;;;2.22;;
4198;SDS011;2113;50.946;14.610;2023-05-29T01:07:21;4.95;;;2.53;;
4198;SDS011;2113;50.946;14.610;2023-05-29T01:09:49;4.28;;;2.53;;
4198;SDS011;2113;50.946;14.610;2023-05-29T01:12:25;6.43;;;2.60;;
4198;SDS011;2113;50.946;14.610;2023-05-29T01:15:07;7.60;;;3.17;;
4198;SDS011;2113;50.946;14.610;2023-05-29T01:17:47;11.32;;;2.85;;
4198;SDS011;2113;50.946;14.610;2023-05-29T01:20:27;10.43;;;2.70;;
4198;SDS011;2113;50.946;14.610;2023-05-29T01:23:18;4.90;;;2.60;;
4198;SDS011;2113;50.946;14.610;2023-05-29T01:25:58;3.40;;;2.00;;
4198;SDS011;2113;50.946;14.610;2023-05-29T01:28:37;8.07;;;2.63;;
4198;SDS011;2113;50.946;14.610;2023-05-29T01:31:10;4.88;;;2.55;;
4198;SDS011;2113;50.946;14.610;2023-05-29T01:33:40;6.53;;;3.00;;
4198;SDS011;2113;50.946;14.610;2023-05-29T01:36:08;4.90;;;2.42;;
4198;SDS011;2113;50.946;14.610;2023-05-29T01:38:37;6.07;;;2.70;;
4198;SDS011;2113;50.946;14.610;2023-05-29T01:41:06;4.55;;;2.45;;
4198;SDS011;2113;50.946;14.610;2023-05-29T01:43:36;6.22;;;2.67;;
4198;SDS011;2113;50.946;14.610;2023-05-29T01:46:05;9.65;;;2.90;;
4198;SDS011;2113;50.946;14.610;2023-05-29T01:48:34;4.15;;;2.30;;
4198;SDS011;2113;50.946;14.610;2023-05-29T01:51:02;6.60;;;2.40;;
4198;SDS011;2113;50.946;14.610;2023-05-29T01:53:31;6.78;;;3.05;;
4198;SDS011;2113;50.946;14.610;2023-05-29T01:55:59;7.10;;;2.65;;
4198;SDS011;2113;50.946;14.610;2023-05-29T01:58:28;3.95;;;2.30;;
4198;SDS011;2113;50.946;14.610;2023-05-29T02:01:00;6.50;;;2.80;;
4198;SDS011;2113;50.946;14.610;2023-05-29T02:03:30;5.38;;;2.67;;
4198;SDS011;2113;50.946;14.610;2023-05-29T02:05:59;4.13;;;2.38;;
4198;SDS011;2113;50.946;14.610;2023-05-29T02:08:28;4.28;;;1.95;;
4198;SDS011;2113;50.946;14.610;2023-05-29T02:10:56;5.65;;;2.58;;
4198;SDS011;2113;50.946;14.610;2023-05-29T02:13:24;3.90;;;2.08;;
4198;SDS011;2113;50.946;14.610;2023-05-29T02:15:53;6.30;;;2.65;;
4198;SDS011;2113;50.946;14.610;2023-05-29T02:18:24;3.80;;;1.92;;
4198;SDS011;2113;50.946;14.610;2023-05-29T02:20:52;4.05;;;2.25;;
4198;SDS011;2113;50.946;14.610;2023-05-29T02:23:21;8.40;;;2.60;;
4198;SDS011;2113;50.946;14.610;2023-05-29T02:25:50;4.18;;;2.38;;
4198;SDS011;2113;50.946;14.610;2023-05-29T02:28:21;5.82;;;2.55;;
4198;SDS011;2113;50.946;14.610;2023-05-29T02:30:50;6.80;;;2.50;;
4198;SDS011;2113;50.946;14.610;2023-05-29T02:33:18;5.68;;;2.63;;
4198;SDS011;2113;50.946;14.610;2023-05-29T02:35:48;4.63;;;2.15;;
4198;SDS011;2113;50.946;14.610;2023-05-29T02:38:16;10.48;;;2.47;;
4198;SDS011;2113;50.946;14.610;2023-05-29T02:40:46;6.38;;;2.70;;
4198;SDS011;2113;50.946;14.610;2023-05-29T02:43:14;6.75;;;2.17;;
4198;SDS011;2113;50.946;14.610;2023-05-29T02:45:42;4.50;;;2.38;;
4198;SDS011;2113;50.946;14.610;2023-05-29T02:48:10;6.60;;;2.70;;
4198;SDS011;2113;50.946;14.610;2023-05-29T02:50:38;4.88;;;2.92;;
4198;SDS011;2113;50.946;14.610;2023-05-29T02:53:09;6.63;;;2.42;;
4198;SDS011;2113;50.946;14.610;2023-05-29T02:55:38;7.13;;;2.80;;
4198;SDS011;2113;50.946;14.610;2023-05-29T02:58:06;6.45;;;2.55;;
4198;SDS011;2113;50.946;14.610;2023-05-29T03:00:35;8.52;;;2.60;;
4198;SDS011;2113;50.946;14.610;2023-05-29T03:03:03;5.28;;;2.40;;
4198;SDS011;2113;50.946;14.610;2023-05-29T03:05:33;6.25;;;3.58;;
4198;SDS011;2113;50.946;14.610;2023-05-29T03:08:02;4.68;;;3.22;;
4198;SDS011;2113;50.946;14.610;2023-05-29T03:10:31;7.60;;;3.78;;
4198;SDS011;2113;50.946;14.610;2023-05-29T03:13:00;7.32;;;3.42;;
4198;SDS011;2113;50.946;14.610;2023-05-29T03:15:29;4.15;;;2.50;;
4198;SDS011;2113;50.946;14.610;2023-05-29T03:17:57;5.40;;;3.38;;
4198;SDS011;2113;50.946;14.610;2023-05-29T03:20:29;6.35;;;2.85;;
4198;SDS011;2113;50.946;14.610;2023-05-29T03:22:59;7.10;;;2.92;;
4198;SDS011;2113;50.946;14.610;2023-05-29T03:25:28;4.72;;;2.65;;
4198;SDS011;2113;50.946;14.610;2023-05-29T03:27:59;8.68;;;3.17;;
4198;SDS011;2113;50.946;14.610;2023-05-29T03:30:27;8.00;;;3.35;;
4198;SDS011;2113;50.946;14.610;2023-05-29T03:32:57;6.63;;;2.70;;
4198;SDS011;2113;50.946;14.610;2023-05-29T03:35:50;4.93;;;2.10;;
4198;SDS011;2113;50.946;14.610;2023-05-29T03:38:18;4.70;;;2.50;;
4198;SDS011;2113;50.946;14.610;2023-05-29T03:40:46;8.57;;;3.00;;
4198;SDS011;2113;50.946;14.610;2023-05-29T03:43:16;5.40;;;2.50;;
4198;SDS011;2113;50.946;14.610;2023-05-29T03:45:45;7.53;;;2.63;;
4198;SDS011;2113;50.946;14.610;2023-05-29T03:48:14;7.43;;;2.88;;
4198;SDS011;2113;50.946;14.610;2023-05-29T03:50:45;6.80;;;2.78;;
4198;SDS011;2113;50.946;14.610;2023-05-29T03:53:19;5.50;;;2.42;;
4198;SDS011;2113;50.946;14.610;2023-05-29T03:55:47;4.22;;;2.15;;
4198;SDS011;2113;50.946;14.610;2023-05-29T03:58:20;7.00;;;2.70;;
4198;SDS011;2113;50.946;14.610;2023-05-29T04:00:49;5.95;;;3.05;;
4198;SDS011;2113;50.946;14.610;2023-05-29T04:03:19;6.63;;;2.50;;
4198;SDS011;2113;50.946;14.610;2023-05-29T04:05:49;8.25;;;3.28;;
4198;SDS011;2113;50.946;14.610;2023-05-29T04:08:17;5.18;;;2.55;;
4198;SDS011;2113;50.946;14.610;2023-05-29T04:10:46;5.68;;;3.40;;
4198;SDS011;2113;50.946;14.610;2023-05-29T04:13:15;5.45;;;2.40;;
4198;SDS011;2113;50.946;14.610;2023-05-29T04:15:45;4.50;;;2.38;;
4198;SDS011;2113;50.946;14.610;2023-05-29T04:18:14;6.13;;;2.97;;
4198;SDS011;2113;50.946;14.610;2023-05-29T04:20:42;4.80;;;2.90;;
4198;SDS011;2113;50.946;14.610;2023-05-29T04:23:15;5.47;;;3.15;;
4198;SDS011;2113;50.946;14.610;2023-05-29T04:25:44;6.00;;;3.17;;
4198;SDS011;2113;50.946;14.610;2023-05-29T04:28:16;9.13;;;3.15;;
4198;SDS011;2113;50.946;14.610;2023-05-29T04:30:50;8.82;;;3.40;;
4198;SDS011;2113;50.946;14.610;2023-05-29T04:33:20;6.32;;;3.03;;
4198;SDS011;2113;50.946;14.610;2023-05-29T04:35:51;7.30;;;4.10;;
4198;SDS011;2113;50.946;14.610;2023-05-29T04:38:19;6.70;;;3.65;;
4198;SDS011;2113;50.946;14.610;2023-05-29T04:40:53;8.68;;;4.13;;
4198;SDS011;2113;50.946;14.610;2023-05-29T04:43:25;8.25;;;4.47;;
4198;SDS011;2113;50.946;14.610;2023-05-29T04:46:01;6.35;;;3.83;;
4198;SDS011;2113;50.946;14.610;2023-05-29T04:48:33;6.97;;;4.30;;
4198;SDS011;2113;50.946;14.610;2023-05-29T04:51:02;9.85;;;4.57;;
4198;SDS011;2113;50.946;14.610;2023-05-29T04:53:30;8.35;;;3.80;;
4198;SDS011;2113;50.946;14.610;2023-05-29T04:55:59;14.85;;;4.35;;
4198;SDS011;2113;50.946;14.610;2023-05-29T04:58:28;10.38;;;5.38;;
4198;SDS011;2113;50.946;14.610;2023-05-29T05:00:57;9.57;;;4.90;;
4198;SDS011;2113;50.946;14.610;2023-05-29T05:03:31;6.95;;;4.90;;
4198;SDS011;2113;50.946;14.610;2023-05-29T05:06:01;9.05;;;4.55;;
4198;SDS011;2113;50.946;14.610;2023-05-29T05:08:31;14.73;;;5.65;;
4198;SDS011;2113;50.946;14.610;2023-05-29T05:11:00;27.83;;;5.30;;
4198;SDS011;2113;50.946;14.610;2023-05-29T05:13:29;7.93;;;4.97;;
4198;SDS011;2113;50.946;14.610;2023-05-29T05:15:57;9.60;;;4.82;;
4198;SDS011;2113;50.946;14.610;2023-05-29T05:18:27;10.50;;;4.57;;
4198;SDS011;2113;50.946;14.610;2023-05-29T05:21:03;11.35;;;4.90;;
4198;SDS011;2113;50.946;14.610;2023-05-29T05:23:34;8.60;;;4.57;;
4198;SDS011;2113;50.946;14.610;2023-05-29T05:26:22;8.25;;;4.80;;
4198;SDS011;2113;50.946;14.610;2023-05-29T05:28:51;10.77;;;4.32;;
4198;SDS011;2113;50.946;14.610;2023-05-29T05:31:21;10.23;;;3.60;;
4198;SDS011;2113;50.946;14.610;2023-05-29T05:33:50;6.72;;;3.10;;
4198;SDS011;2113;50.946;14.610;2023-05-29T05:36:19;7.40;;;3.30;;
4198;SDS011;2113;50.946;14.610;2023-05-29T05:38:54;7.70;;;3.42;;
4198;SDS011;2113;50.946;14.610;2023-05-29T05:41:24;8.65;;;3.65;;
4198;SDS011;2113;50.946;14.610;2023-05-29T05:43:53;5.53;;;3.50;;
4198;SDS011;2113;50.946;14.610;2023-05-29T05:46:29;6.88;;;3.88;;
4198;SDS011;2113;50.946;14.610;2023-05-29T05:48:58;7.65;;;4.10;;
4198;SDS011;2113;50.946;14.610;2023-05-29T05:51:29;7.25;;;4.05;;
4198;SDS011;2113;50.946;14.610;2023-05-29T05:53:58;9.25;;;3.33;;
4198;SDS011;2113;50.946;14.610;2023-05-29T05:56:28;7.78;;;4.03;;
4198;SDS011;2113;50.946;14.610;2023-05-29T05:58:56;6.15;;;3.67;;
4198;SDS011;2113;50.946;14.610;2023-05-29T06:01:25;6.55;;;4.00;;
4198;SDS011;2113;50.946;14.610;2023-05-29T06:03:54;5.72;;;3.33;;
4198;SDS011;2113;50.946;14.610;2023-05-29T06:06:22;7.63;;;3.90;;
4198;SDS011;2113;50.946;14.610;2023-05-29T06:08:52;7.63;;;3.25;;
4198;SDS011;2113;50.946;14.610;2023-05-29T06:11:21;8.98;;;3.72;;
4198;SDS011;2113;50.946;14.610;2023-05-29T06:13:50;6.32;;;3.47;;
4198;SDS011;2113;50.946;14.610;2023-05-29T06:16:22;8.90;;;3.50;;
4198;SDS011;2113;50.946;14.610;2023-05-29T06:18:50;7.00;;;3.22;;
4198;SDS011;2113;50.946;14.610;2023-05-29T06:21:20;15.05;;;4.05;;
4198;SDS011;2113;50.946;14.610;2023-05-29T06:23:55;4.88;;;2.83;;
4198;SDS011;2113;50.946;14.610;2023-05-29T06:26:25;6.03;;;3.20;;
4198;SDS011;2113;50.946;14.610;2023-05-29T06:28:54;8.50;;;2.60;;
4198;SDS011;2113;50.946;14.610;2023-05-29T06:31:22;3.90;;;2.65;;
4198;SDS011;2113;50.946;14.610;2023-05-29T06:33:52;7.20;;;3.65;;
4198;SDS011;2113;50.946;14.610;2023-05-29T06:36:21;8.85;;;3.78;;
4198;SDS011;2113;50.946;14.610;2023-05-29T06:38:50;5.55;;;2.80;;
4198;SDS011;2113;50.946;14.610;2023-05-29T06:41:21;7.43;;;3.30;;
4198;SDS011;2113;50.946;14.610;2023-05-29T06:43:49;6.70;;;3.60;;
4198;SDS011;2113;50.946;14.610;2023-05-29T06:46:20;5.20;;;2.88;;
4198;SDS011;2113;50.946;14.610;2023-05-29T06:48:49;10.65;;;3.00;;
4198;SDS011;2113;50.946;14.610;2023-05-29T06:51:17;6.88;;;2.88;;
4198;SDS011;2113;50.946;14.610;2023-05-29T06:53:54;5.90;;;3.60;;
4198;SDS011;2113;50.946;14.610;2023-05-29T06:56:27;7.68;;;2.60;;
4198;SDS011;2113;50.946;14.610;2023-05-29T06:58:57;7.60;;;2.63;;
4198;SDS011;2113;50.946;14.610;2023-05-29T07:01:28;6.45;;;3.47;;
4198;SDS011;2113;50.946;14.610;2023-05-29T07:04:03;8.15;;;4.38;;
4198;SDS011;2113;50.946;14.610;2023-05-29T07:06:32;7.38;;;4.38;;
4198;SDS011;2113;50.946;14.610;2023-05-29T07:09:04;4.03;;;2.75;;
4198;SDS011;2113;50.946;14.610;2023-05-29T07:11:35;10.38;;;5.35;;
4198;SDS011;2113;50.946;14.610;2023-05-29T07:14:05;7.07;;;3.70;;
4198;SDS011;2113;50.946;14.610;2023-05-29T07:16:33;5.18;;;2.60;;
4198;SDS011;2113;50.946;14.610;2023-05-29T07:19:04;5.22;;;2.70;;
4198;SDS011;2113;50.946;14.610;2023-05-29T07:21:46;6.80;;;4.43;;
4198;SDS011;2113;50.946;14.610;2023-05-29T07:24:16;6.13;;;3.03;;
4198;SDS011;2113;50.946;14.610;2023-05-29T07:26:46;5.63;;;2.35;;
4198;SDS011;2113;50.946;14.610;2023-05-29T07:29:14;3.77;;;2.23;;
4198;SDS011;2113;50.946;14.610;2023-05-29T07:31:45;6.20;;;1.97;;
4198;SDS011;2113;50.946;14.610;2023-05-29T07:34:14;5.80;;;2.27;;
4198;SDS011;2113;50.946;14.610;2023-05-29T07:36:56;6.80;;;3.93;;
4198;SDS011;2113;50.946;14.610;2023-05-29T07:39:25;7.07;;;3.03;;
4198;SDS011;2113;50.946;14.610;2023-05-29T07:41:55;6.53;;;2.80;;
4198;SDS011;2113;50.946;14.610;2023-05-29T07:44:24;3.67;;;2.70;;
4198;SDS011;2113;50.946;14.610;2023-05-29T07:46:54;8.40;;;3.20;;
4198;SDS011;2113;50.946;14.610;2023-05-29T07:49:32;4.60;;;2.03;;
4198;SDS011;2113;50.946;14.610;2023-05-29T07:52:01;3.67;;;2.57;;
4198;SDS011;2113;50.946;14.610;2023-05-29T07:54:30;5.10;;;2.73;;
4198;SDS011;2113;50.946;14.610;2023-05-29T07:57:01;5.43;;;2.60;;
4198;SDS011;2113;50.946;14.610;2023-05-29T07:59:30;4.43;;;3.07;;
4198;SDS011;2113;50.946;14.610;2023-05-29T08:02:00;5.00;;;3.20;;
4198;SDS011;2113;50.946;14.610;2023-05-29T08:04:48;4.97;;;3.33;;
4198;SDS011;2113;50.946;14.610;2023-05-29T08:07:17;4.80;;;2.80;;
4198;SDS011;2113;50.946;14.610;2023-05-29T08:09:45;4.00;;;2.63;;
4198;SDS011;2113;50.946;14.610;2023-05-29T08:12:15;5.10;;;2.90;;
4198;SDS011;2113;50.946;14.610;2023-05-29T08:14:43;6.93;;;3.33;;
4198;SDS011;2113;50.946;14.610;2023-05-29T08:17:11;4.47;;;2.50;;
4198;SDS011;2113;50.946;14.610;2023-05-29T08:19:39;3.90;;;2.00;;
4198;SDS011;2113;50.946;14.610;2023-05-29T08:22:11;4.73;;;2.87;;
4198;SDS011;2113;50.946;14.610;2023-05-29T08:24:40;4.03;;;2.80;;
4198;SDS011;2113;50.946;14.610;2023-05-29T08:27:08;4.13;;;2.13;;
4198;SDS011;2113;50.946;14.610;2023-05-29T08:29:38;6.57;;;2.20;;
4198;SDS011;2113;50.946;14.610;2023-05-29T08:32:07;6.67;;;2.37;;
4198;SDS011;2113;50.946;14.610;2023-05-29T08:34:37;6.27;;;2.30;;
4198;SDS011;2113;50.946;14.610;2023-05-29T08:37:08;4.83;;;2.80;;
4198;SDS011;2113;50.946;14.610;2023-05-29T08:39:36;4.70;;;3.10;;
4198;SDS011;2113;50.946;14.610;2023-05-29T08:42:07;6.67;;;2.60;;
4198;SDS011;2113;50.946;14.610;2023-05-29T08:44:39;5.03;;;2.50;;
4198;SDS011;2113;50.946;14.610;2023-05-29T08:47:08;3.97;;;2.37;;
4198;SDS011;2113;50.946;14.610;2023-05-29T08:49:41;5.77;;;3.07;;
4198;SDS011;2113;50.946;14.610;2023-05-29T08:52:12;4.67;;;2.50;;
4198;SDS011;2113;50.946;14.610;2023-05-29T08:54:44;2.90;;;2.10;;
4198;SDS011;2113;50.946;14.610;2023-05-29T08:57:12;6.80;;;2.57;;
4198;SDS011;2113;50.946;14.610;2023-05-29T08:59:43;6.23;;;3.20;;
4198;SDS011;2113;50.946;14.610;2023-05-29T09:02:13;7.13;;;2.97;;
4198;SDS011;2113;50.946;14.610;2023-05-29T09:04:42;4.80;;;2.77;;
4198;SDS011;2113;50.946;14.610;2023-05-29T09:07:11;4.10;;;2.10;;
4198;SDS011;2113;50.946;14.610;2023-05-29T09:09:41;5.83;;;2.93;;
4198;SDS011;2113;50.946;14.610;2023-05-29T09:12:10;5.70;;;3.13;;
4198;SDS011;2113;50.946;14.610;2023-05-29T09:14:40;6.43;;;4.00;;
4198;SDS011;2113;50.946;14.610;2023-05-29T09:17:12;5.47;;;2.50;;
4198;SDS011;2113;50.946;14.610;2023-05-29T09:19:41;5.40;;;3.30;;
4198;SDS011;2113;50.946;14.610;2023-05-29T09:22:12;9.77;;;4.10;;
4198;SDS011;2113;50.946;14.610;2023-05-29T09:24:43;7.50;;;3.53;;
4198;SDS011;2113;50.946;14.610;2023-05-29T09:27:14;5.57;;;3.43;;
4198;SDS011;2113;50.946;14.610;2023-05-29T09:29:44;4.97;;;3.33;;
4198;SDS011;2113;50.946;14.610;2023-05-29T09:32:16;8.30;;;3.57;;
4198;SDS011;2113;50.946;14.610;2023-05-29T09:34:45;8.20;;;3.10;;
4198;SDS011;2113;50.946;14.610;2023-05-29T09:37:13;4.87;;;3.00;;
4198;SDS011;2113;50.946;14.610;2023-05-29T09:39:45;6.37;;;3.97;;
4198;SDS011;2113;50.946;14.610;2023-05-29T09:42:14;4.90;;;3.10;;
4198;SDS011;2113;50.946;14.610;2023-05-29T09:44:44;6.47;;;3.13;;
4198;SDS011;2113;50.946;14.610;2023-05-29T09:47:18;4.70;;;2.80;;
4198;SDS011;2113;50.946;14.610;2023-05-29T09:49:47;5.27;;;3.67;;
4198;SDS011;2113;50.946;14.610;2023-05-29T09:52:20;5.33;;;3.07;;
4198;SDS011;2113;50.946;14.610;2023-05-29T09:54:49;6.20;;;3.97;;
4198;SDS011;2113;50.946;14.610;2023-05-29T09:57:19;7.40;;;3.30;;
4198;SDS011;2113;50.946;14.610;2023-05-29T09:59:50;9.20;;;4.67;;
4198;SDS011;2113;50.946;14.610;2023-05-29T10:02:22;5.83;;;3.87;;
4198;SDS011;2113;50.946;14.610;2023-05-29T10:04:51;4.80;;;3.40;;
4198;SDS011;2113;50.946;14.610;2023-05-29T10:07:21;4.10;;;3.27;;
4198;SDS011;2113;50.946;14.610;2023-05-29T10:09:55;4.80;;;3.50;;
4198;SDS011;2113;50.946;14.610;2023-05-29T10:12:30;7.23;;;4.03;;
4198;SDS011;2113;50.946;14.610;2023-05-29T10:15:01;8.83;;;4.20;;
4198;SDS011;2113;50.946;14.610;2023-05-29T10:17:34;5.00;;;3.17;;
4198;SDS011;2113;50.946;14.610;2023-05-29T10:20:04;5.07;;;3.10;;
4198;SDS011;2113;50.946;14.610;2023-05-29T10:22:35;6.80;;;3.50;;
4198;SDS011;2113;50.946;14.610;2023-05-29T10:25:08;5.57;;;3.80;;
4198;SDS011;2113;50.946;14.610;2023-05-29T10:27:39;4.90;;;3.40;;
4198;SDS011;2113;50.946;14.610;2023-05-29T10:30:09;5.13;;;3.13;;
4198;SDS011;2113;50.946;14.610;2023-05-29T10:32:50;5.23;;;2.90;;
4198;SDS011;2113;50.946;14.610;2023-05-29T10:35:29;8.03;;;3.17;;
4198;SDS011;2113;50.946;14.610;2023-05-29T10:38:08;5.53;;;3.73;;
4198;SDS011;2113;50.946;14.610;2023-05-29T10:40:40;5.10;;;3.43;;
4198;SDS011;2113;50.946;14.610;2023-05-29T10:43:08;5.57;;;3.60;;
4198;SDS011;2113;50.946;14.610;2023-05-29T10:45:50;6.37;;;3.20;;
4198;SDS011;2113;50.946;14.610;2023-05-29T10:51:25;8.57;;;3.60;;
4198;SDS011;2113;50.946;14.610;2023-05-29T10:53:54;5.80;;;3.67;;
4198;SDS011;2113;50.946;14.610;2023-05-29T10:56:23;7.78;;;4.18;;
4198;SDS011;2113;50.946;14.610;2023-05-29T10:58:58;4.38;;;3.08;;
4198;SDS011;2113;50.946;14.610;2023-05-29T11:01:28;6.47;;;4.47;;
4198;SDS011;2113;50.946;14.610;2023-05-29T11:06:59;3.92;;;2.50;;
4198;SDS011;2113;50.946;14.610;2023-05-29T11:09:31;8.25;;;3.75;;
4198;SDS011;2113;50.946;14.610;2023-05-29T11:12:11;7.75;;;3.75;;
4198;SDS011;2113;50.946;14.610;2023-05-29T11:14:44;7.17;;;3.50;;
4198;SDS011;2113;50.946;14.610;2023-05-29T11:17:34;6.47;;;3.33;;
4198;SDS011;2113;50.946;14.610;2023-05-29T11:23:26;5.00;;;3.13;;
4198;SDS011;2113;50.946;14.610;2023-05-29T11:25:59;6.77;;;4.00;;
4198;SDS011;2113;50.946;14.610;2023-05-29T11:28:29;8.33;;;5.57;;
4198;SDS011;2113;50.946;14.610;2023-05-29T11:30:58;9.00;;;4.20;;
4198;SDS011;2113;50.946;14.610;2023-05-29T11:33:31;5.73;;;3.20;;
4198;SDS011;2113;50.946;14.610;2023-05-29T11:36:00;13.77;;;3.87;;
4198;SDS011;2113;50.946;14.610;2023-05-29T11:38:30;8.43;;;5.60;;
4198;SDS011;2113;50.946;14.610;2023-05-29T11:41:00;9.43;;;5.80;;
4198;SDS011;2113;50.946;14.610;2023-05-29T11:43:31;6.03;;;4.33;;
4198;SDS011;2113;50.946;14.610;2023-05-29T11:45:59;9.73;;;3.70;;
4198;SDS011;2113;50.946;14.610;2023-05-29T11:48:27;6.15;;;3.47;;
4198;SDS011;2113;50.946;14.610;2023-05-29T11:50:55;5.90;;;3.05;;
4198;SDS011;2113;50.946;14.610;2023-05-29T11:53:26;4.85;;;3.28;;
4198;SDS011;2113;50.946;14.610;2023-05-29T11:56:06;4.85;;;3.00;;
4198;SDS011;2113;50.946;14.610;2023-05-29T11:58:36;10.98;;;3.13;;
4198;SDS011;2113;50.946;14.610;2023-05-29T12:01:05;7.80;;;3.53;;
4198;SDS011;2113;50.946;14.610;2023-05-29T12:03:37;6.15;;;3.80;;
4198;SDS011;2113;50.946;14.610;2023-05-29T12:06:06;5.55;;;3.25;;
4198;SDS011;2113;50.946;14.610;2023-05-29T12:08:37;5.60;;;3.60;;
4198;SDS011;2113;50.946;14.610;2023-05-29T12:11:07;5.65;;;3.30;;
4198;SDS011;2113;50.946;14.610;2023-05-29T12:13:36;5.32;;;3.85;;
4198;SDS011;2113;50.946;14.610;2023-05-29T12:16:04;5.70;;;3.58;;
4198;SDS011;2113;50.946;14.610;2023-05-29T12:18:35;6.75;;;4.13;;
4198;SDS011;2113;50.946;14.610;2023-05-29T12:21:04;6.75;;;3.67;;
4198;SDS011;2113;50.946;14.610;2023-05-29T12:23:32;5.75;;;3.53;;
4198;SDS011;2113;50.946;14.610;2023-05-29T12:26:01;6.05;;;3.65;;
4198;SDS011;2113;50.946;14.610;2023-05-29T12:28:32;11.05;;;3.63;;
4198;SDS011;2113;50.946;14.610;2023-05-29T12:31:00;6.07;;;4.80;;
4198;SDS011;2113;50.946;14.610;2023-05-29T12:33:29;6.13;;;2.67;;
4198;SDS011;2113;50.946;14.610;2023-05-29T12:36:03;8.90;;;3.95;;
4198;SDS011;2113;50.946;14.610;2023-05-29T12:38:33;4.55;;;3.35;;
4198;SDS011;2113;50.946;14.610;2023-05-29T12:41:03;7.18;;;3.03;;
4198;SDS011;2113;50.946;14.610;2023-05-29T12:43:34;5.47;;;4.03;;
4198;SDS011;2113;50.946;14.610;2023-05-29T12:46:02;5.32;;;3.67;;
4198;SDS011;2113;50.946;14.610;2023-05-29T12:48:34;5.57;;;3.55;;
4198;SDS011;2113;50.946;14.610;2023-05-29T12:51:04;11.27;;;4.93;;
4198;SDS011;2113;50.946;14.610;2023-05-29T12:53:34;5.95;;;3.40;;
4198;SDS011;2113;50.946;14.610;2023-05-29T12:56:02;6.78;;;3.40;;
4198;SDS011;2113;50.946;14.610;2023-05-29T12:58:31;4.68;;;3.13;;
4198;SDS011;2113;50.946;14.610;2023-05-29T13:01:00;6.43;;;2.88;;
4198;SDS011;2113;50.946;14.610;2023-05-29T13:03:29;4.65;;;2.80;;
4198;SDS011;2113;50.946;14.610;2023-05-29T13:05:57;6.15;;;3.65;;
4198;SDS011;2113;50.946;14.610;2023-05-29T13:08:27;7.25;;;3.42;;
4198;SDS011;2113;50.946;14.610;2023-05-29T13:10:56;4.55;;;3.10;;
4198;SDS011;2113;50.946;14.610;2023-05-29T13:13:25;3.80;;;3.35;;
4198;SDS011;2113;50.946;14.610;2023-05-29T13:15:53;6.43;;;3.15;;
4198;SDS011;2113;50.946;14.610;2023-05-29T13:18:23;5.20;;;3.30;;
4198;SDS011;2113;50.946;14.610;2023-05-29T13:20:52;4.55;;;3.15;;
4198;SDS011;2113;50.946;14.610;2023-05-29T13:23:20;5.07;;;3.17;;
4198;SDS011;2113;50.946;14.610;2023-05-29T13:25:49;8.48;;;3.00;;
4198;SDS011;2113;50.946;14.610;2023-05-29T13:28:17;6.15;;;4.00;;
4198;SDS011;2113;50.946;14.610;2023-05-29T13:30:46;11.05;;;3.60;;
4198;SDS011;2113;50.946;14.610;2023-05-29T13:33:14;5.40;;;3.67;;
4198;SDS011;2113;50.946;14.610;2023-05-29T13:35:44;7.83;;;2.83;;
4198;SDS011;2113;50.946;14.610;2023-05-29T13:38:13;6.53;;;3.40;;
4198;SDS011;2113;50.946;14.610;2023-05-29T13:40:42;5.30;;;3.17;;
4198;SDS011;2113;50.946;14.610;2023-05-29T13:43:11;5.20;;;2.80;;
4198;SDS011;2113;50.946;14.610;2023-05-29T13:45:39;4.55;;;3.30;;
4198;SDS011;2113;50.946;14.610;2023-05-29T13:48:08;4.50;;;3.47;;
4198;SDS011;2113;50.946;14.610;2023-05-29T13:50:36;7.30;;;3.30;;
4198;SDS011;2113;50.946;14.610;2023-05-29T13:53:06;8.68;;;3.90;;
4198;SDS011;2113;50.946;14.610;2023-05-29T13:55:34;6.60;;;3.30;;
4198;SDS011;2113;50.946;14.610;2023-05-29T13:58:02;5.60;;;2.77;;
4198;SDS011;2113;50.946;14.610;2023-05-29T14:00:31;6.83;;;3.80;;
4198;SDS011;2113;50.946;14.610;2023-05-29T14:02:59;5.53;;;2.77;;
4198;SDS011;2113;50.946;14.610;2023-05-29T14:05:28;4.82;;;3.25;;
4198;SDS011;2113;50.946;14.610;2023-05-29T14:07:57;7.35;;;3.60;;
4198;SDS011;2113;50.946;14.610;2023-05-29T14:10:26;8.30;;;3.20;;
4198;SDS011;2113;50.946;14.610;2023-05-29T14:12:54;4.07;;;3.03;;
4198;SDS011;2113;50.946;14.610;2023-05-29T14:15:23;6.00;;;3.38;;
4198;SDS011;2113;50.946;14.610;2023-05-29T14:17:52;4.63;;;3.45;;
4198;SDS011;2113;50.946;14.610;2023-05-29T14:20:21;9.05;;;2.63;;
4198;SDS011;2113;50.946;14.610;2023-05-29T14:22:49;4.55;;;3.10;;
4198;SDS011;2113;50.946;14.610;2023-05-29T14:25:18;7.45;;;3.03;;
4198;SDS011;2113;50.946;14.610;2023-05-29T14:27:48;5.30;;;3.40;;
4198;SDS011;2113;50.946;14.610;2023-05-29T14:30:16;5.83;;;3.43;;
4198;SDS011;2113;50.946;14.610;2023-05-29T14:32:44;7.07;;;3.67;;
4198;SDS011;2113;50.946;14.610;2023-05-29T14:35:13;5.70;;;3.30;;
4198;SDS011;2113;50.946;14.610;2023-05-29T14:37:41;5.63;;;3.30;;
4198;SDS011;2113;50.946;14.610;2023-05-29T14:40:10;8.17;;;3.37;;
4198;SDS011;2113;50.946;14.610;2023-05-29T14:42:38;7.43;;;3.60;;
4198;SDS011;2113;50.946;14.610;2023-05-29T14:45:08;6.67;;;4.30;;
4198;SDS011;2113;50.946;14.610;2023-05-29T14:47:37;7.53;;;3.47;;
4198;SDS011;2113;50.946;14.610;2023-05-29T14:50:06;7.97;;;3.63;;
4198;SDS011;2113;50.946;14.610;2023-05-29T14:52:35;5.50;;;3.63;;
4198;SDS011;2113;50.946;14.610;2023-05-29T14:55:03;7.23;;;3.90;;
4198;SDS011;2113;50.946;14.610;2023-05-29T14:57:33;5.80;;;3.10;;
4198;SDS011;2113;50.946;14.610;2023-05-29T15:00:01;8.60;;;3.70;;
4198;SDS011;2113;50.946;14.610;2023-05-29T15:02:34;12.40;;;3.57;;
4198;SDS011;2113;50.946;14.610;2023-05-29T15:05:03;6.43;;;4.10;;
4198;SDS011;2113;50.946;14.610;2023-05-29T15:07:32;6.47;;;3.87;;
4198;SDS011;2113;50.946;14.610;2023-05-29T15:10:01;5.22;;;3.63;;
4198;SDS011;2113;50.946;14.610;2023-05-29T15:12:31;6.43;;;3.45;;
4198;SDS011;2113;50.946;14.610;2023-05-29T15:14:59;6.55;;;3.80;;
4198;SDS011;2113;50.946;14.610;2023-05-29T15:17:29;7.10;;;4.25;;
4198;SDS011;2113;50.946;14.610;2023-05-29T15:19:59;6.60;;;3.70;;
4198;SDS011;2113;50.946;14.610;2023-05-29T15:22:29;4.40;;;3.22;;
4198;SDS011;2113;50.946;14.610;2023-05-29T15:24:57;6.20;;;3.67;;
4198;SDS011;2113;50.946;14.610;2023-05-29T15:27:27;9.00;;;4.40;;
4198;SDS011;2113;50.946;14.610;2023-05-29T15:30:07;6.07;;;4.13;;
4198;SDS011;2113;50.946;14.610;2023-05-29T15:32:38;6.80;;;4.57;;